^^
Station Historical Data
Daily Summary for January 14, 2018 Units:  Both    English   Metric
« Previous Day
Next Day »
Daily Weekly Monthly Yearly Custom
  High: Low: Average:
Temperature: TemperatureF °F /  -17.8 °C 75.9 °F /  24.4 °C 81.1 °F /  27.3 °C
Dew Point: DewpointF °F /  -17.8 °C 45.7 °F /  7.6 °C 46.7 °F /  8.2 °C
Humidity: Humidity% 25% 30%
Wind Speed: WindSpeedMPHmph /  0km/h - -15.5mph /  -24.9km/h
Wind Gust: WindSpeedGustMPHmph /  0km/h - -
Wind- -
Pressure: PressureIn in /  0 hPa 29.52 in /  999.5 hPa -
Precipitation: 0.00 in /  0 mm    
Historical Graphs
 
 
Tabular Data for January 14, 2018
Time Temperature Dew Point Pressure Wind Wind Speed Wind Gust Humidity Rainfall Rate (Hourly) solar Conditions
TemperatureF °F /  -17.8 °C DewpointF °F /  -17.8 °C PressureInin /  0hPa Calm     Humidity% HourlyPrecipInin /  0mm SoftwareType W/m2 Conditions
08:14 75.9 °F /  24.4 °C 46.2 °F /  7.9 °C 29.60in /  1002.3hPa NW 4.9mph /  7.9km/h 7.0mph /  11.3km/h 35% 0.00in /  0mm meteobridge W/m2
08:20 76.5 °F /  24.7 °C 46.0 °F /  7.8 °C 29.61in /  1002.6hPa North 4.0mph /  6.4km/h 9.0mph /  14.5km/h 34% 0.00in /  0mm meteobridge W/m2
08:26 77.2 °F /  25.1 °C 46.6 °F /  8.1 °C 29.61in /  1002.6hPa NNE 10.1mph /  16.3km/h 12.0mph /  19.3km/h 34% 0.00in /  0mm meteobridge W/m2
08:33 76.6 °F /  24.8 °C 46.2 °F /  7.9 °C 29.61in /  1002.6hPa NNE 4.9mph /  7.9km/h 9.0mph /  14.5km/h 34% 0.00in /  0mm meteobridge W/m2
08:39 77.0 °F /  25 °C 46.4 °F /  8 °C 29.62in /  1002.9hPa NNE 4.9mph /  7.9km/h 11.0mph /  17.7km/h 34% 0.00in /  0mm meteobridge W/m2
08:45 77.7 °F /  25.4 °C 46.4 °F /  8 °C 29.61in /  1002.6hPa NNE 6.9mph /  11.1km/h 11.0mph /  17.7km/h 33% 0.00in /  0mm meteobridge W/m2
08:51 77.7 °F /  25.4 °C 47.1 °F /  8.4 °C 29.62in /  1002.9hPa NNE 4.0mph /  6.4km/h 12.0mph /  19.3km/h 34% 0.00in /  0mm meteobridge W/m2
09:01 77.4 °F /  25.2 °C 46.8 °F /  8.2 °C 29.62in /  1002.9hPa NNE 8.1mph /  13km/h 12.0mph /  19.3km/h 34% 0.00in /  0mm meteobridge W/m2
09:07 78.1 °F /  25.6 °C 46.6 °F /  8.1 °C 29.62in /  1002.9hPa North 6.0mph /  9.7km/h 11.0mph /  17.7km/h 33% 0.00in /  0mm meteobridge W/m2
09:13 78.3 °F /  25.7 °C 46.8 °F /  8.2 °C 29.62in /  1002.9hPa North 6.9mph /  11.1km/h 9.0mph /  14.5km/h 33% 0.00in /  0mm meteobridge W/m2
09:19 79.0 °F /  26.1 °C 47.5 °F /  8.6 °C 29.61in /  1002.6hPa NNE 12.1mph /  19.5km/h 12.1mph /  19.5km/h 33% 0.00in /  0mm meteobridge W/m2
09:25 79.0 °F /  26.1 °C 46.6 °F /  8.1 °C 29.62in /  1002.9hPa North 4.0mph /  6.4km/h 10.0mph /  16.1km/h 32% 0.00in /  0mm meteobridge W/m2
09:31 79.0 °F /  26.1 °C 46.6 °F /  8.1 °C 29.62in /  1002.9hPa NNW 6.9mph /  11.1km/h 7.0mph /  11.3km/h 32% 0.00in /  0mm meteobridge W/m2
09:39 79.3 °F /  26.3 °C 46.9 °F /  8.3 °C 29.62in /  1002.9hPa NNE 8.1mph /  13km/h 9.0mph /  14.5km/h 32% 0.00in /  0mm meteobridge W/m2
09:45 80.1 °F /  26.7 °C 46.8 °F /  8.2 °C 29.62in /  1002.9hPa Calm   4.0mph /  6.4km/h 31% 0.00in /  0mm meteobridge W/m2
09:58 80.6 °F /  27 °C 47.1 °F /  8.4 °C 29.62in /  1002.9hPa NNW 2.9mph /  4.7km/h 11.0mph /  17.7km/h 31% 0.00in /  0mm meteobridge W/m2
10:10 81.3 °F /  27.4 °C 46.0 °F /  7.8 °C 29.62in /  1002.9hPa NE 6.0mph /  9.7km/h 10.0mph /  16.1km/h 29% 0.00in /  0mm meteobridge W/m2
10:16 82.2 °F /  27.9 °C 46.8 °F /  8.2 °C 29.62in /  1002.9hPa NNE 4.0mph /  6.4km/h 10.0mph /  16.1km/h 29% 0.00in /  0mm meteobridge W/m2
10:22 82.0 °F /  27.8 °C 46.6 °F /  8.1 °C 29.62in /  1002.9hPa North 12.1mph /  19.5km/h 12.1mph /  19.5km/h 29% 0.00in /  0mm meteobridge W/m2
10:32 81.3 °F /  27.4 °C 46.0 °F /  7.8 °C 29.62in /  1002.9hPa SSE 4.0mph /  6.4km/h 10.0mph /  16.1km/h 29% 0.00in /  0mm meteobridge W/m2
10:38 81.7 °F /  27.6 °C 46.4 °F /  8 °C 29.61in /  1002.6hPa South 6.0mph /  9.7km/h 12.0mph /  19.3km/h 29% 0.00in /  0mm meteobridge W/m2
10:45 83.1 °F /  28.4 °C 46.6 °F /  8.1 °C 29.62in /  1002.9hPa NNE 4.0mph /  6.4km/h 6.0mph /  9.7km/h 28% 0.00in /  0mm meteobridge W/m2
10:51 83.1 °F /  28.4 °C 46.6 °F /  8.1 °C 29.63in /  1003.3hPa ESE 2.9mph /  4.7km/h 5.0mph /  8km/h 28% 0.00in /  0mm meteobridge W/m2
10:57 83.1 °F /  28.4 °C 46.6 °F /  8.1 °C 29.62in /  1002.9hPa SE 0.9mph /  1.4km/h 6.0mph /  9.7km/h 28% 0.00in /  0mm meteobridge W/m2
11:03 83.7 °F /  28.7 °C 47.1 °F /  8.4 °C 29.62in /  1002.9hPa NNE 8.1mph /  13km/h 14.0mph /  22.5km/h 28% 0.00in /  0mm meteobridge W/m2
11:09 84.0 °F /  28.9 °C 46.4 °F /  8 °C 29.62in /  1002.9hPa ENE 4.0mph /  6.4km/h 7.0mph /  11.3km/h 27% 0.00in /  0mm meteobridge W/m2
11:15 84.7 °F /  29.3 °C 47.1 °F /  8.4 °C 29.62in /  1002.9hPa ENE 2.0mph /  3.2km/h 11.0mph /  17.7km/h 27% 0.00in /  0mm meteobridge W/m2
11:21 85.5 °F /  29.7 °C 48.6 °F /  9.2 °C 29.62in /  1002.9hPa South 4.9mph /  7.9km/h 10.0mph /  16.1km/h 28% 0.00in /  0mm meteobridge W/m2
11:28 83.8 °F /  28.8 °C 47.3 °F /  8.5 °C 29.62in /  1002.9hPa SSW 4.9mph /  7.9km/h 14.0mph /  22.5km/h 28% 0.00in /  0mm meteobridge W/m2
11:34 82.9 °F /  28.3 °C 47.5 °F /  8.6 °C 29.62in /  1002.9hPa SE 2.9mph /  4.7km/h 5.0mph /  8km/h 29% 0.00in /  0mm meteobridge W/m2
11:40 84.4 °F /  29.1 °C 47.7 °F /  8.7 °C 29.62in /  1002.9hPa NNE 11.0mph /  17.7km/h 13.0mph /  20.9km/h 28% 0.00in /  0mm meteobridge W/m2
11:52 84.6 °F /  29.2 °C 47.8 °F /  8.8 °C 29.60in /  1002.3hPa SSE 4.9mph /  7.9km/h 6.0mph /  9.7km/h 28% 0.00in /  0mm meteobridge W/m2
11:58 85.5 °F /  29.7 °C 47.7 °F /  8.7 °C 29.60in /  1002.3hPa NNE 6.0mph /  9.7km/h 10.0mph /  16.1km/h 27% 0.00in /  0mm meteobridge W/m2
12:04 83.1 °F /  28.4 °C 46.6 °F /  8.1 °C 29.60in /  1002.3hPa North 2.9mph /  4.7km/h 19.0mph /  30.6km/h 28% 0.00in /  0mm meteobridge W/m2
12:10 82.2 °F /  27.9 °C 45.9 °F /  7.7 °C 29.60in /  1002.3hPa NE 4.0mph /  6.4km/h 11.0mph /  17.7km/h 28% 0.00in /  0mm meteobridge W/m2
12:17 82.6 °F /  28.1 °C 46.2 °F /  7.9 °C 29.60in /  1002.3hPa NE 2.9mph /  4.7km/h 7.0mph /  11.3km/h 28% 0.00in /  0mm meteobridge W/m2
12:23 82.2 °F /  27.9 °C 45.9 °F /  7.7 °C 29.60in /  1002.3hPa NE 0.9mph /  1.4km/h 4.0mph /  6.4km/h 28% 0.00in /  0mm meteobridge W/m2
12:29 82.2 °F /  27.9 °C 48.6 °F /  9.2 °C 29.60in /  1002.3hPa Calm   4.0mph /  6.4km/h 31% 0.00in /  0mm meteobridge W/m2
12:35 81.9 °F /  27.7 °C 50.0 °F /  10 °C 29.60in /  1002.3hPa NE 0.9mph /  1.4km/h 10.0mph /  16.1km/h 33% 0.00in /  0mm meteobridge W/m2
12:41 81.3 °F /  27.4 °C 48.6 °F /  9.2 °C 29.60in /  1002.3hPa ESE 0.9mph /  1.4km/h 3.0mph /  4.8km/h 32% 0.00in /  0mm meteobridge W/m2
12:53 81.3 °F /  27.4 °C 46.9 °F /  8.3 °C 29.59in /  1001.9hPa Calm   4.0mph /  6.4km/h 30% 0.00in /  0mm meteobridge W/m2
13:00 82.6 °F /  28.1 °C 47.1 °F /  8.4 °C 29.59in /  1001.9hPa South 0.9mph /  1.4km/h 2.0mph /  3.2km/h 29% 0.00in /  0mm meteobridge W/m2
13:06 83.7 °F /  28.7 °C 47.1 °F /  8.4 °C 29.59in /  1001.9hPa NNE 4.0mph /  6.4km/h 13.0mph /  20.9km/h 28% 0.00in /  0mm meteobridge W/m2
13:12 83.5 °F /  28.6 °C 46.9 °F /  8.3 °C 29.60in /  1002.3hPa ENE 0.9mph /  1.4km/h 6.0mph /  9.7km/h 28% 0.00in /  0mm meteobridge W/m2
13:24 85.5 °F /  29.7 °C 47.7 °F /  8.7 °C 29.59in /  1001.9hPa North 6.9mph /  11.1km/h 10.0mph /  16.1km/h 27% 0.00in /  0mm meteobridge W/m2
13:32 82.9 °F /  28.3 °C 46.4 °F /  8 °C 29.59in /  1001.9hPa NE 14.1mph /  22.7km/h 17.0mph /  27.4km/h 28% 0.00in /  0mm meteobridge W/m2
13:38 84.0 °F /  28.9 °C 47.5 °F /  8.6 °C 29.58in /  1001.6hPa NNE 6.0mph /  9.7km/h 15.0mph /  24.1km/h 28% 0.00in /  0mm meteobridge W/m2
13:45 86.9 °F /  30.5 °C 47.8 °F /  8.8 °C 29.58in /  1001.6hPa NNE 13.0mph /  20.9km/h 15.0mph /  24.1km/h 26% 0.00in /  0mm meteobridge W/m2
13:51 87.3 °F /  30.7 °C 47.1 °F /  8.4 °C 29.58in /  1001.6hPa NNE 4.9mph /  7.9km/h 12.0mph /  19.3km/h 25% 0.00in /  0mm meteobridge W/m2
13:57 84.9 °F /  29.4 °C 46.2 °F /  7.9 °C 29.58in /  1001.6hPa NNE 2.9mph /  4.7km/h 6.0mph /  9.7km/h 26% 0.00in /  0mm meteobridge W/m2
14:07 83.8 °F /  28.8 °C 46.2 °F /  7.9 °C 29.57in /  1001.2hPa SE 0.9mph /  1.4km/h 4.0mph /  6.4km/h 27% 0.00in /  0mm meteobridge W/m2
14:13 84.6 °F /  29.2 °C 46.9 °F /  8.3 °C 29.57in /  1001.2hPa SE 0.9mph /  1.4km/h 3.0mph /  4.8km/h 27% 0.00in /  0mm meteobridge W/m2
14:19 86.5 °F /  30.3 °C 46.6 °F /  8.1 °C 29.57in /  1001.2hPa NW 2.0mph /  3.2km/h 10.0mph /  16.1km/h 25% 0.00in /  0mm meteobridge W/m2
14:25 87.4 °F /  30.8 °C 47.3 °F /  8.5 °C 29.57in /  1001.2hPa NE 4.0mph /  6.4km/h 7.0mph /  11.3km/h 25% 0.00in /  0mm meteobridge W/m2
14:36 87.1 °F /  30.6 °C 46.9 °F /  8.3 °C 29.57in /  1001.2hPa North 4.0mph /  6.4km/h 9.0mph /  14.5km/h 25% 0.00in /  0mm meteobridge W/m2
14:42 86.2 °F /  30.1 °C 46.2 °F /  7.9 °C 29.56in /  1000.9hPa Calm   4.0mph /  6.4km/h 25% 0.00in /  0mm meteobridge W/m2
14:48 85.8 °F /  29.9 °C 46.9 °F /  8.3 °C 29.55in /  1000.6hPa SE 2.0mph /  3.2km/h 6.0mph /  9.7km/h 26% 0.00in /  0mm meteobridge W/m2
14:54 84.4 °F /  29.1 °C 45.7 °F /  7.6 °C 29.56in /  1000.9hPa SSW 4.9mph /  7.9km/h 17.0mph /  27.4km/h 26% 0.00in /  0mm meteobridge W/m2
15:06 82.8 °F /  28.2 °C 48.2 °F /  9 °C 29.55in /  1000.6hPa SSE 6.0mph /  9.7km/h 13.0mph /  20.9km/h 30% 0.00in /  0mm meteobridge W/m2
15:12 82.8 °F /  28.2 °C 48.2 °F /  9 °C 29.55in /  1000.6hPa SE 13.0mph /  20.9km/h 17.0mph /  27.4km/h 30% 0.00in /  0mm meteobridge W/m2
15:18 81.9 °F /  27.7 °C 47.3 °F /  8.5 °C 29.56in /  1000.9hPa SSE 14.1mph /  22.7km/h 14.1mph /  22.7km/h 30% 0.00in /  0mm meteobridge W/m2
15:24 80.2 °F /  26.8 °C 46.9 °F /  8.3 °C 29.56in /  1000.9hPa SSE 10.1mph /  16.3km/h 16.0mph /  25.7km/h 31% 0.00in /  0mm meteobridge W/m2
15:30 79.9 °F /  26.6 °C 47.3 °F /  8.5 °C 29.55in /  1000.6hPa South 11.0mph /  17.7km/h 17.0mph /  27.4km/h 32% 0.00in /  0mm meteobridge W/m2
15:36 80.8 °F /  27.1 °C 47.3 °F /  8.5 °C 29.55in /  1000.6hPa SSE 13.0mph /  20.9km/h 13.0mph /  20.9km/h 31% 0.00in /  0mm meteobridge W/m2
15:42 82.2 °F /  27.9 °C 47.7 °F /  8.7 °C 29.55in /  1000.6hPa SSE 12.1mph /  19.5km/h 15.0mph /  24.1km/h 30% 0.00in /  0mm meteobridge W/m2
15:48 83.5 °F /  28.6 °C 48.7 °F /  9.3 °C 29.54in /  1000.2hPa SSE 6.0mph /  9.7km/h 12.0mph /  19.3km/h 30% 0.00in /  0mm meteobridge W/m2
15:55 84.7 °F /  29.3 °C 48.0 °F /  8.9 °C 29.54in /  1000.2hPa South 4.9mph /  7.9km/h 17.0mph /  27.4km/h 28% 0.00in /  0mm meteobridge W/m2
16:01 84.7 °F /  29.3 °C 48.9 °F /  9.4 °C 29.54in /  1000.2hPa South 6.9mph /  11.1km/h 12.0mph /  19.3km/h 29% 0.00in /  0mm meteobridge W/m2
16:07 86.0 °F /  30 °C 48.2 °F /  9 °C 29.54in /  1000.2hPa ESE 10.1mph /  16.3km/h 13.0mph /  20.9km/h 27% 0.00in /  0mm meteobridge W/m2
16:13 85.1 °F /  29.5 °C 48.4 °F /  9.1 °C 29.54in /  1000.2hPa SE 4.0mph /  6.4km/h 12.0mph /  19.3km/h 28% 0.00in /  0mm meteobridge W/m2
16:19 85.8 °F /  29.9 °C 48.0 °F /  8.9 °C 29.53in /  999.9hPa SSE 13.0mph /  20.9km/h 14.0mph /  22.5km/h 27% 0.00in /  0mm meteobridge W/m2
16:25 84.2 °F /  29 °C 47.5 °F /  8.6 °C 29.53in /  999.9hPa South 4.0mph /  6.4km/h 9.0mph /  14.5km/h 28% 0.00in /  0mm meteobridge W/m2
16:32 84.2 °F /  29 °C 47.5 °F /  8.6 °C 29.52in /  999.5hPa SSE 2.9mph /  4.7km/h 6.0mph /  9.7km/h 28% 0.00in /  0mm meteobridge W/m2
16:38 84.4 °F /  29.1 °C 46.8 °F /  8.2 °C 29.52in /  999.5hPa SSE 4.9mph /  7.9km/h 12.0mph /  19.3km/h 27% 0.00in /  0mm meteobridge W/m2
16:44 83.5 °F /  28.6 °C 48.7 °F /  9.3 °C 29.52in /  999.5hPa East 0.9mph /  1.4km/h 7.0mph /  11.3km/h 30% 0.00in /  0mm meteobridge W/m2
16:56 81.7 °F /  27.6 °C 47.3 °F /  8.5 °C 29.52in /  999.5hPa NW 4.9mph /  7.9km/h 11.0mph /  17.7km/h 30% 0.00in /  0mm meteobridge W/m2
17:02 82.0 °F /  27.8 °C 48.4 °F /  9.1 °C 29.52in /  999.5hPa NNW 4.0mph /  6.4km/h 11.0mph /  17.7km/h 31% 0.00in /  0mm meteobridge W/m2
17:08 81.7 °F /  27.6 °C 47.3 °F /  8.5 °C 29.52in /  999.5hPa Calm   1.0mph /  1.6km/h 30% 0.00in /  0mm meteobridge W/m2
17:14 81.5 °F /  27.5 °C 48.0 °F /  8.9 °C 29.52in /  999.5hPa Calm   3.0mph /  4.8km/h 31% 0.00in /  0mm meteobridge W/m2
17:20 81.3 °F /  27.4 °C 47.8 °F /  8.8 °C 29.52in /  999.5hPa NNE 2.0mph /  3.2km/h 3.0mph /  4.8km/h 31% 0.00in /  0mm meteobridge W/m2
17:27 81.1 °F /  27.3 °C 46.8 °F /  8.2 °C 29.53in /  999.9hPa Calm   2.0mph /  3.2km/h 30% 0.00in /  0mm meteobridge W/m2
17:33 80.4 °F /  26.9 °C 46.9 °F /  8.3 °C 29.54in /  1000.2hPa NW 4.9mph /  7.9km/h 11.0mph /  17.7km/h 31% 0.00in /  0mm meteobridge W/m2
17:39 79.9 °F /  26.6 °C 46.6 °F /  8.1 °C 29.54in /  1000.2hPa South 2.0mph /  3.2km/h 5.0mph /  8km/h 31% 0.00in /  0mm meteobridge W/m2
17:45 79.5 °F /  26.4 °C 46.2 °F /  7.9 °C 29.53in /  999.9hPa South 2.0mph /  3.2km/h 9.0mph /  14.5km/h 31% 0.00in /  0mm meteobridge W/m2
17:51 79.3 °F /  26.3 °C 46.9 °F /  8.3 °C 29.53in /  999.9hPa SSW 4.0mph /  6.4km/h 7.0mph /  11.3km/h 32% 0.00in /  0mm meteobridge W/m2
17:57 79.3 °F /  26.3 °C 46.9 °F /  8.3 °C 29.53in /  999.9hPa Calm   3.0mph /  4.8km/h 32% 0.00in /  0mm meteobridge W/m2
18:03 80.1 °F /  26.7 °C 47.5 °F /  8.6 °C 29.53in /  999.9hPa North 6.9mph /  11.1km/h 7.0mph /  11.3km/h 32% 0.00in /  0mm meteobridge W/m2
18:09 79.7 °F /  26.5 °C 47.3 °F /  8.5 °C 29.53in /  999.9hPa North 6.0mph /  9.7km/h 11.0mph /  17.7km/h 32% 0.00in /  0mm meteobridge W/m2
18:16 79.3 °F /  26.3 °C 47.7 °F /  8.7 °C 29.53in /  999.9hPa North 6.9mph /  11.1km/h 9.0mph /  14.5km/h 33% 0.00in /  0mm meteobridge W/m2
18:22 79.5 °F /  26.4 °C 47.1 °F /  8.4 °C 29.54in /  1000.2hPa NNW 4.9mph /  7.9km/h 5.0mph /  8km/h 32% 0.00in /  0mm meteobridge W/m2
18:28 80.2 °F /  26.8 °C 47.7 °F /  8.7 °C 29.53in /  999.9hPa Calm   2.0mph /  3.2km/h 32% 0.00in /  0mm meteobridge W/m2
18:34 80.6 °F /  27 °C 47.1 °F /  8.4 °C 29.53in /  999.9hPa SSE 2.0mph /  3.2km/h 4.0mph /  6.4km/h 31% 0.00in /  0mm meteobridge W/m2
18:40 79.2 °F /  26.2 °C 47.7 °F /  8.7 °C 29.53in /  999.9hPa SSW 4.0mph /  6.4km/h 10.0mph /  16.1km/h 33% 0.00in /  0mm meteobridge W/m2
18:46 78.3 °F /  25.7 °C 48.4 °F /  9.1 °C 29.54in /  1000.2hPa South 11.0mph /  17.7km/h 12.0mph /  19.3km/h 35% 0.00in /  0mm meteobridge W/m2
18:53 78.1 °F /  25.6 °C 48.2 °F /  9 °C 29.54in /  1000.2hPa SSE 6.0mph /  9.7km/h 6.0mph /  9.7km/h 35% 0.00in /  0mm meteobridge W/m2
19:06 78.1 °F /  25.6 °C 48.2 °F /  9 °C 29.54in /  1000.2hPa North -999.9mph /  -1609.1km/h -999.0mph /  -1607.7km/h 35% 0.00in /  0mm meteobridge W/m2
19:11 78.1 °F /  25.6 °C 48.2 °F /  9 °C 29.54in /  1000.2hPa North -999.9mph /  -1609.1km/h -999.0mph /  -1607.7km/h 35% 0.00in /  0mm meteobridge W/m2
Regenstein, Windhoek, Namibia
Compliments of Weather Underground - 2.5 mb